Time;durP1;ratioP1;P1;durP2;ratioP2;P2;SDS_P1;SDS_P2;PMS_P1;PMS_P2;Temp;Humidity;BMP_temperature;BMP_pressure;BME280_temperature;BME280_humidity;BME280_pressure;Samples;Min_cycle;Max_cycle;Signal;HPM_P1;HPM_P2
2020/12/07 00:01:44;;;;;;;48.07;29.37;;;5.30;99.90;;;;;;4401821;32;20180;-66
2020/12/07 00:04:10;;;;;;;40.87;25.87;;;5.30;99.90;;;;;;4404675;32;20148;-66
2020/12/07 00:06:39;;;;;;;45.53;28.03;;;5.30;99.90;;;;;;4393957;32;20198;-67
2020/12/07 00:09:06;;;;;;;42.67;26.60;;;5.20;99.90;;;;;;4391230;32;20201;-66
2020/12/07 00:11:34;;;;;;;41.57;25.53;;;5.30;99.90;;;;;;4390041;32;20235;-66
2020/12/07 00:14:01;;;;;;;43.37;24.87;;;5.30;99.90;;;;;;4389644;32;20511;-65
2020/12/07 00:16:27;;;;;;;39.57;24.30;;;5.40;99.90;;;;;;4390937;32;20189;-66
2020/12/07 00:18:53;;;;;;;40.97;25.53;;;5.40;99.90;;;;;;4398764;32;20238;-66
2020/12/07 00:21:20;;;;;;;38.27;25.33;;;5.50;99.90;;;;;;4393449;32;20242;-66
2020/12/07 00:23:46;;;;;;;41.93;27.13;;;5.40;99.90;;;;;;4389625;32;20160;-66
2020/12/07 00:26:13;;;;;;;47.13;28.00;;;5.40;99.90;;;;;;4389730;32;20148;-66
2020/12/07 00:28:40;;;;;;;42.77;25.67;;;5.40;99.90;;;;;;4397560;32;20164;-66
2020/12/07 00:31:06;;;;;;;46.23;27.90;;;5.40;99.90;;;;;;4402426;32;20227;-66
2020/12/07 00:33:33;;;;;;;45.10;26.83;;;5.30;99.90;;;;;;4395385;32;20160;-65
2020/12/07 00:36:00;;;;;;;45.67;28.00;;;5.30;99.90;;;;;;4398465;32;20225;-65
2020/12/07 00:38:26;;;;;;;44.20;27.30;;;5.30;99.90;;;;;;4403168;32;20207;-65
2020/12/07 00:40:52;;;;;;;45.00;28.13;;;5.30;99.90;;;;;;4404438;32;20156;-65
2020/12/07 00:43:19;;;;;;;44.73;27.47;;;5.30;99.90;;;;;;4396132;32;20167;-65
2020/12/07 00:45:46;;;;;;;44.80;27.10;;;5.30;99.90;;;;;;4395066;32;20285;-64
2020/12/07 00:48:12;;;;;;;44.07;27.50;;;5.30;99.90;;;;;;4402992;32;20215;-64
2020/12/07 00:50:38;;;;;;;41.43;27.03;;;5.30;99.90;;;;;;4395334;32;20246;-65
2020/12/07 00:53:05;;;;;;;43.43;26.87;;;5.30;99.90;;;;;;4389969;32;20224;-64
2020/12/07 00:55:32;;;;;;;45.33;28.03;;;5.20;99.90;;;;;;4397464;32;20153;-64
2020/12/07 00:57:58;;;;;;;41.13;26.50;;;5.20;99.90;;;;;;4390782;32;20217;-64
2020/12/07 01:00:26;;;;;;;42.67;27.03;;;5.20;99.90;;;;;;4396213;32;20622;-64
2020/12/07 01:02:52;;;;;;;44.17;27.13;;;5.40;99.90;;;;;;4394735;32;20266;-66
2020/12/07 01:05:18;;;;;;;43.27;26.40;;;5.30;99.90;;;;;;4397095;32;20246;-66
2020/12/07 01:07:45;;;;;;;45.30;28.03;;;5.30;99.90;;;;;;4392080;32;20369;-66
2020/12/07 01:10:13;;;;;;;48.10;29.03;;;5.30;99.90;;;;;;4389722;32;20151;-63
2020/12/07 01:12:40;;;;;;;45.33;27.43;;;5.30;99.90;;;;;;4390407;32;20166;-66
2020/12/07 01:15:07;;;;;;;43.93;27.37;;;5.30;99.90;;;;;;4398534;32;20164;-65
2020/12/07 01:17:34;;;;;;;44.30;27.27;;;5.30;99.90;;;;;;4390496;32;20238;-65
2020/12/07 01:20:00;;;;;;;46.27;27.67;;;5.30;99.90;;;;;;4393029;32;20166;-65
2020/12/07 01:22:27;;;;;;;46.57;28.00;;;5.30;99.90;;;;;;4403349;32;20297;-66
2020/12/07 01:24:53;;;;;;;47.57;29.30;;;5.40;99.90;;;;;;4405839;32;20568;-66
2020/12/07 01:27:20;;;;;;;47.00;28.60;;;5.30;99.90;;;;;;4405721;32;20225;-65
2020/12/07 01:29:46;;;;;;;46.20;28.70;;;5.40;99.90;;;;;;4405110;32;20216;-66
2020/12/07 01:32:13;;;;;;;49.83;28.03;;;5.30;99.90;;;;;;4391789;32;20259;-66
2020/12/07 01:34:40;;;;;;;49.73;29.27;;;5.30;99.90;;;;;;4405808;32;20144;-66
2020/12/07 01:37:09;;;;;;;54.00;29.57;;;5.30;99.90;;;;;;4400611;32;20237;-66
2020/12/07 01:39:41;;;;;;;51.93;30.87;;;5.30;99.90;;;;;;4401354;32;20195;-66
2020/12/07 01:42:09;;;;;;;53.03;31.93;;;5.30;99.90;;;;;;4406459;32;20178;-66
2020/12/07 01:44:36;;;;;;;55.77;31.30;;;5.30;99.90;;;;;;4391564;32;20211;-66
2020/12/07 01:47:20;;;;;;;53.23;30.10;;;5.30;99.90;;;;;;4391533;32;20238;-66
2020/12/07 01:49:49;;;;;;;46.43;29.30;;;5.30;99.90;;;;;;4394849;32;20152;-66
2020/12/07 01:52:15;;;;;;;48.40;27.80;;;5.30;99.90;;;;;;4396242;32;20179;-66
2020/12/07 01:54:42;;;;;;;48.53;29.47;;;5.30;99.90;;;;;;4406196;32;20551;-66
2020/12/07 01:57:09;;;;;;;49.03;28.67;;;5.30;99.90;;;;;;4390612;32;20147;-66
2020/12/07 01:59:35;;;;;;;48.13;27.53;;;5.20;99.90;;;;;;4396714;32;20203;-66
2020/12/07 02:02:04;;;;;;;45.17;28.13;;;5.30;99.90;;;;;;4395386;32;20152;-67
2020/12/07 02:04:32;;;;;;;49.63;29.20;;;5.30;99.90;;;;;;4392681;32;20539;-66
2020/12/07 02:07:04;;;;;;;45.10;28.90;;;5.30;99.90;;;;;;4392769;32;20527;-67
2020/12/07 02:09:30;;;;;;;51.93;29.33;;;5.30;99.90;;;;;;4395212;32;20538;-67
2020/12/07 02:12:06;;;;;;;45.40;26.47;;;5.30;99.90;;;;;;4406293;32;20246;-68
2020/12/07 02:14:32;;;;;;;49.33;28.47;;;5.30;99.90;;;;;;4404808;32;20182;-67
2020/12/07 02:16:58;;;;;;;49.57;30.30;;;5.30;99.90;;;;;;4406185;32;20219;-67
2020/12/07 02:19:25;;;;;;;52.70;30.00;;;5.30;99.90;;;;;;4398734;32;20231;-66
2020/12/07 02:21:52;;;;;;;51.87;28.73;;;5.30;99.90;;;;;;4391896;32;20170;-67
2020/12/07 02:24:18;;;;;;;50.20;30.13;;;5.30;99.90;;;;;;4392227;32;20174;-67
2020/12/07 02:26:44;;;;;;;51.87;29.67;;;5.30;99.90;;;;;;4396184;32;20175;-67
2020/12/07 02:29:16;;;;;;;48.53;30.93;;;5.30;99.90;;;;;;4400533;32;20632;-67
2020/12/07 02:31:43;;;;;;;55.23;31.17;;;5.30;99.90;;;;;;4401615;32;20178;-67
2020/12/07 02:34:13;;;;;;;48.43;28.53;;;5.30;99.90;;;;;;4403257;32;20182;-67
2020/12/07 02:36:39;;;;;;;50.23;30.33;;;5.30;99.90;;;;;;4404579;32;20169;-67
2020/12/07 02:39:07;;;;;;;55.37;29.80;;;5.30;99.90;;;;;;4400828;32;20243;-67
2020/12/07 02:41:33;;;;;;;48.30;28.97;;;5.30;99.90;;;;;;4391909;32;20534;-67
2020/12/07 02:43:59;;;;;;;49.53;30.23;;;5.30;99.90;;;;;;4399537;32;20270;-67
2020/12/07 02:46:28;;;;;;;48.70;29.70;;;5.20;99.90;;;;;;4404392;32;20263;-67
2020/12/07 02:48:54;;;;;;;52.03;29.87;;;5.20;99.90;;;;;;4403878;32;20186;-67
2020/12/07 02:51:21;;;;;;;47.67;28.87;;;5.20;99.90;;;;;;4391225;32;20247;-68
2020/12/07 02:53:47;;;;;;;49.53;29.30;;;5.20;99.90;;;;;;4390550;32;20219;-67
2020/12/07 02:56:14;;;;;;;52.97;30.43;;;5.20;99.90;;;;;;4395616;32;20205;-66
2020/12/07 02:58:41;;;;;;;47.90;29.53;;;5.20;99.90;;;;;;4391778;32;20172;-66
2020/12/07 03:01:07;;;;;;;47.17;28.47;;;5.20;99.90;;;;;;4396130;32;20152;-67
2020/12/07 03:03:33;;;;;;;51.57;29.40;;;5.20;99.90;;;;;;4398835;32;20227;-67
2020/12/07 03:06:05;;;;;;;45.80;27.20;;;5.20;99.90;;;;;;4392093;32;20144;-67
2020/12/07 03:08:33;;;;;;;51.10;30.07;;;5.20;99.90;;;;;;4397528;32;20227;-68
2020/12/07 03:11:01;;;;;;;47.77;27.87;;;5.20;99.90;;;;;;4394715;32;20225;-68
2020/12/07 03:13:28;;;;;;;45.07;27.30;;;5.30;99.90;;;;;;4404206;32;20155;-68
2020/12/07 03:15:55;;;;;;;50.83;28.97;;;5.30;99.90;;;;;;4401611;32;20163;-68
2020/12/07 03:18:26;;;;;;;43.40;28.00;;;5.30;99.90;;;;;;4405297;32;20218;-67
2020/12/07 03:20:52;;;;;;;44.83;27.50;;;5.20;99.90;;;;;;4403475;32;20227;-67
2020/12/07 03:23:20;;;;;;;47.47;28.83;;;5.20;99.90;;;;;;4392062;32;20227;-67
2020/12/07 03:25:46;;;;;;;50.40;29.03;;;5.10;99.90;;;;;;4390475;32;20182;-67
2020/12/07 03:28:13;;;;;;;49.23;28.10;;;5.30;99.90;;;;;;4404849;32;20148;-68
2020/12/07 03:30:40;;;;;;;47.97;28.47;;;5.20;99.90;;;;;;4398573;32;20235;-68
2020/12/07 03:33:06;;;;;;;45.77;26.97;;;5.30;99.90;;;;;;4390555;32;20227;-68
2020/12/07 03:35:32;;;;;;;44.43;27.20;;;5.30;99.90;;;;;;4394071;32;20486;-68
2020/12/07 03:37:58;;;;;;;48.47;27.07;;;5.30;99.90;;;;;;4393439;32;20227;-68
2020/12/07 03:40:25;;;;;;;44.40;26.43;;;5.20;99.90;;;;;;4403499;32;20238;-68
2020/12/07 03:42:51;;;;;;;47.87;28.07;;;5.30;99.90;;;;;;4402466;32;20176;-68
2020/12/07 03:45:17;;;;;;;48.03;28.40;;;5.40;99.90;;;;;;4398527;32;20210;-67
2020/12/07 03:47:44;;;;;;;46.70;27.60;;;5.30;99.90;;;;;;4396629;32;20242;-68
2020/12/07 03:50:10;;;;;;;47.60;26.97;;;5.20;99.90;;;;;;4403839;32;20611;-68
2020/12/07 03:52:37;;;;;;;49.87;28.40;;;5.20;99.90;;;;;;4402650;32;20526;-68
2020/12/07 03:55:06;;;;;;;45.27;26.67;;;5.20;99.90;;;;;;4390568;32;20262;-68
2020/12/07 03:57:32;;;;;;;40.73;24.10;;;5.20;99.90;;;;;;4389485;32;20242;-68
2020/12/07 03:59:59;;;;;;;44.23;24.90;;;5.20;99.90;;;;;;4392245;32;20503;-68
2020/12/07 04:02:26;;;;;;;38.13;24.23;;;5.30;99.90;;;;;;4394903;32;20180;-68
2020/12/07 04:04:59;;;;;;;41.40;25.07;;;5.30;99.90;;;;;;4391956;32;20501;-68
2020/12/07 04:07:25;;;;;;;39.97;24.23;;;5.30;99.90;;;;;;4390782;32;20242;-68
2020/12/07 04:09:51;;;;;;;43.67;26.07;;;5.30;99.90;;;;;;4399592;32;20177;-68
2020/12/07 04:12:18;;;;;;;38.87;23.30;;;5.30;99.90;;;;;;4395265;32;20227;-68
2020/12/07 04:14:44;;;;;;;41.23;23.60;;;5.30;99.90;;;;;;4390708;32;20207;-68
2020/12/07 04:17:10;;;;;;;38.97;22.87;;;5.30;99.90;;;;;;4389621;32;20559;-68
2020/12/07 04:19:36;;;;;;;44.17;24.30;;;5.30;99.90;;;;;;4390441;32;20196;-68
2020/12/07 04:22:04;;;;;;;42.30;23.77;;;5.40;99.90;;;;;;4396272;32;20235;-68
2020/12/07 04:24:30;;;;;;;38.93;23.00;;;5.30;99.90;;;;;;4404391;32;20549;-68
2020/12/07 04:26:59;;;;;;;37.47;21.80;;;5.30;99.90;;;;;;4402158;32;20219;-68
2020/12/07 04:29:25;;;;;;;35.50;21.53;;;5.30;99.90;;;;;;4404498;32;20595;-68
2020/12/07 04:31:51;;;;;;;37.07;22.47;;;5.40;99.90;;;;;;4399611;32;20156;-68
2020/12/07 04:34:18;;;;;;;45.07;22.80;;;5.40;99.90;;;;;;4393355;32;20232;-68
2020/12/07 04:36:44;;;;;;;37.17;21.30;;;5.40;99.90;;;;;;4403516;32;20526;-68
2020/12/07 04:39:14;;;;;;;34.70;21.47;;;5.40;99.90;;;;;;4403093;32;20218;-68
2020/12/07 04:41:41;;;;;;;33.53;20.20;;;5.40;99.90;;;;;;4399093;32;20171;-68
2020/12/07 04:44:16;;;;;;;36.07;21.77;;;5.40;99.90;;;;;;4389053;32;20459;-68
2020/12/07 04:46:45;;;;;;;39.90;22.90;;;5.50;99.90;;;;;;4389124;32;20147;-68
2020/12/07 04:49:12;;;;;;;38.03;21.57;;;5.40;99.90;;;;;;4395349;32;20222;-68
2020/12/07 04:51:38;;;;;;;34.97;22.10;;;5.40;99.90;;;;;;4401231;32;20278;-68
2020/12/07 04:54:05;;;;;;;37.23;21.83;;;5.30;99.90;;;;;;4389330;32;20594;-68
2020/12/07 04:56:34;;;;;;;34.27;22.30;;;5.40;99.90;;;;;;4393366;32;20235;-68
2020/12/07 04:59:01;;;;;;;38.70;23.03;;;5.40;99.90;;;;;;4393760;32;20168;-68
2020/12/07 05:01:27;;;;;;;35.17;22.30;;;5.40;99.90;;;;;;4404273;32;20234;-68
2020/12/07 05:03:54;;;;;;;38.77;21.80;;;5.50;99.90;;;;;;4395974;32;20167;-68
2020/12/07 05:06:20;;;;;;;36.87;21.73;;;5.40;99.90;;;;;;4392551;32;20219;-68
2020/12/07 05:08:46;;;;;;;35.70;21.90;;;5.50;99.90;;;;;;4393480;32;20168;-68
2020/12/07 05:11:13;;;;;;;36.80;21.13;;;5.40;99.90;;;;;;4400862;32;20212;-68
2020/12/07 05:13:44;;;;;;;37.80;22.50;;;5.50;99.90;;;;;;4401135;32;20143;-68
2020/12/07 05:16:11;;;;;;;40.70;21.97;;;5.50;99.90;;;;;;4392302;32;20448;-68
2020/12/07 05:18:39;;;;;;;36.53;21.40;;;5.50;99.90;;;;;;4401538;32;20183;-68
2020/12/07 05:21:06;;;;;;;34.67;21.23;;;5.50;99.90;;;;;;4401032;32;20563;-69
2020/12/07 05:23:36;;;;;;;39.07;23.00;;;5.50;99.90;;;;;;4394607;32;20167;-69
2020/12/07 05:26:03;;;;;;;33.13;20.77;;;5.50;99.90;;;;;;4406645;32;20148;-69
2020/12/07 05:28:37;;;;;;;34.43;21.00;;;5.50;99.90;;;;;;4404368;32;20162;-68
2020/12/07 05:31:04;;;;;;;31.97;18.43;;;5.50;99.90;;;;;;4392408;32;20140;-68
2020/12/07 05:33:31;;;;;;;29.90;18.67;;;5.50;99.90;;;;;;4395396;32;20155;-69
2020/12/07 05:35:58;;;;;;;30.40;18.80;;;5.50;99.90;;;;;;4405161;32;20553;-69
2020/12/07 05:38:32;;;;;;;30.93;18.73;;;5.60;99.90;;;;;;4400437;32;20227;-69
2020/12/07 05:41:10;;;;;;;27.50;17.20;;;5.50;99.90;;;;;;4394999;32;20144;-69
2020/12/07 05:43:37;;;;;;;25.50;16.60;;;5.60;99.90;;;;;;4401350;32;20293;-69
2020/12/07 05:46:05;;;;;;;28.33;18.20;;;5.60;99.90;;;;;;4396416;32;20227;-69
2020/12/07 05:48:33;;;;;;;30.33;18.57;;;5.60;99.90;;;;;;4405619;32;20136;-68
2020/12/07 05:51:03;;;;;;;26.27;17.30;;;5.60;99.90;;;;;;4392073;32;20541;-69
2020/12/07 05:53:33;;;;;;;28.40;18.23;;;5.60;99.90;;;;;;4391566;32;20600;-69
2020/12/07 05:56:02;;;;;;;30.27;18.93;;;5.60;99.90;;;;;;4406165;32;20189;-69
2020/12/07 05:58:30;;;;;;;29.97;19.37;;;5.60;99.90;;;;;;4406795;32;20602;-69
2020/12/07 06:01:02;;;;;;;29.07;19.47;;;5.60;99.90;;;;;;4402317;32;20180;-69
2020/12/07 06:03:34;;;;;;;31.53;19.57;;;5.60;99.90;;;;;;4401597;32;20159;-69
2020/12/07 06:06:01;;;;;;;31.30;19.53;;;5.60;99.90;;;;;;4399966;32;20168;-69
2020/12/07 06:08:31;;;;;;;29.30;18.87;;;5.80;99.90;;;;;;4393549;32;20227;-69
2020/12/07 06:11:00;;;;;;;27.90;18.40;;;5.60;99.90;;;;;;4396444;32;20144;-69
2020/12/07 06:13:28;;;;;;;35.20;20.90;;;5.70;99.90;;;;;;4395857;32;20253;-68
2020/12/07 06:16:02;;;;;;;31.50;18.73;;;5.70;99.90;;;;;;4398087;32;20144;-69
2020/12/07 06:18:30;;;;;;;29.47;17.20;;;5.70;99.90;;;;;;4391236;32;20192;-68
2020/12/07 06:21:02;;;;;;;29.83;18.60;;;5.60;99.90;;;;;;4398121;32;20159;-68
2020/12/07 06:23:33;;;;;;;28.53;18.10;;;5.70;99.90;;;;;;4395437;32;20210;-69
2020/12/07 06:26:00;;;;;;;32.87;17.63;;;5.70;99.90;;;;;;4395289;32;20156;-70
2020/12/07 06:28:34;;;;;;;27.23;18.03;;;5.70;99.90;;;;;;4390560;32;20207;-69
2020/12/07 06:31:08;;;;;;;28.33;17.90;;;5.80;99.90;;;;;;4394063;32;20211;-70
2020/12/07 06:33:49;;;;;;;31.57;17.43;;;5.80;99.90;;;;;;4398188;32;20147;-69
2020/12/07 06:36:53;;;;;;;22.37;14.43;;;5.70;99.90;;;;;;4392299;32;20183;-69
2020/12/07 06:39:27;;;;;;;25.30;15.67;;;5.80;99.90;;;;;;4395716;32;20201;-69
2020/12/07 06:42:00;;;;;;;22.40;14.60;;;5.80;99.90;;;;;;4397057;32;20581;-69
2020/12/07 06:44:27;;;;;;;25.43;15.63;;;5.80;99.90;;;;;;4394325;32;20155;-69
2020/12/07 06:47:09;;;;;;;25.27;15.47;;;5.80;99.90;;;;;;4395370;32;20140;-69
2020/12/07 06:49:39;;;;;;;23.87;16.00;;;5.80;99.90;;;;;;4393855;32;20168;-69
2020/12/07 06:52:16;;;;;;;27.70;16.10;;;5.80;99.90;;;;;;4395280;32;20151;-69
2020/12/07 06:55:06;;;;;;;22.27;15.13;;;5.80;99.90;;;;;;4395982;32;20147;-69
2020/12/07 06:57:37;;;;;;;23.83;16.27;;;5.80;99.90;;;;;;4396423;32;20182;-69
2020/12/07 07:00:17;;;;;;;22.30;14.67;;;5.80;99.90;;;;;;4392934;32;20612;-69
2020/12/07 07:02:46;;;;;;;23.93;14.80;;;5.80;99.90;;;;;;4391123;32;20205;-69
2020/12/07 07:05:14;;;;;;;24.77;14.53;;;5.80;99.90;;;;;;4391870;32;20282;-69
2020/12/07 07:07:41;;;;;;;22.90;14.47;;;5.90;99.90;;;;;;4396122;32;20144;-70
2020/12/07 07:10:14;;;;;;;20.83;14.20;;;5.80;99.90;;;;;;4396919;32;20511;-69
2020/12/07 07:12:43;;;;;;;25.17;15.50;;;5.80;99.90;;;;;;4393508;32;20175;-70
2020/12/07 07:15:11;;;;;;;21.33;14.77;;;5.80;99.90;;;;;;4398058;32;20144;-69
2020/12/07 07:17:39;;;;;;;24.00;14.87;;;5.80;99.90;;;;;;4390681;32;21013;-70
2020/12/07 07:20:07;;;;;;;23.33;15.17;;;5.90;99.90;;;;;;4389689;32;20204;-70
2020/12/07 07:22:36;;;;;;;29.97;17.00;;;5.80;99.90;;;;;;4394270;32;20515;-70
2020/12/07 07:25:21;;;;;;;27.67;17.47;;;5.80;99.90;;;;;;4396487;32;20171;-69
2020/12/07 07:28:06;;;;;;;28.70;17.23;;;5.80;99.90;;;;;;4392716;32;20397;-70
2020/12/07 07:30:33;;;;;;;26.10;17.60;;;5.80;99.90;;;;;;4395156;32;20158;-69
2020/12/07 07:33:02;;;;;;;29.97;17.90;;;5.80;99.90;;;;;;4394235;32;20164;-69
2020/12/07 07:35:29;;;;;;;27.63;16.83;;;5.80;99.90;;;;;;4398676;32;20222;-69
2020/12/07 07:37:56;;;;;;;27.77;18.27;;;5.90;99.90;;;;;;4399597;32;20246;-69
2020/12/07 07:40:25;;;;;;;28.90;18.57;;;5.90;99.90;;;;;;4398984;32;20174;-69
2020/12/07 07:42:55;;;;;;;29.47;19.07;;;5.90;99.90;;;;;;4396884;32;20160;-69
2020/12/07 07:45:31;;;;;;;32.67;20.27;;;5.90;99.90;;;;;;4400569;32;20166;-69
2020/12/07 07:48:07;;;;;;;33.43;19.50;;;5.90;99.90;;;;;;4399587;32;20583;-70
2020/12/07 07:50:50;;;;;;;33.83;20.87;;;5.80;99.90;;;;;;4398667;32;20557;-69
2020/12/07 08:15:53;;;;;;;35.83;21.47;;;5.90;99.90;;;;;;4395692;32;20238;-68
2020/12/07 08:18:30;;;;;;;32.37;20.97;;;5.80;99.90;;;;;;4393783;32;20143;-67
2020/12/07 08:20:59;;;;;;;42.83;24.10;;;5.90;99.90;;;;;;4394108;32;20182;-68
2020/12/07 08:23:29;;;;;;;37.80;23.10;;;5.90;99.90;;;;;;4397687;32;20148;-68
2020/12/07 08:25:55;;;;;;;42.93;24.20;;;6.00;99.90;;;;;;4399168;32;20235;-68
2020/12/07 08:28:28;;;;;;;51.70;26.53;;;5.90;99.90;;;;;;4395614;32;20644;-67
2020/12/07 08:31:06;;;;;;;43.97;24.70;;;5.80;99.90;;;;;;4396624;32;20179;-68
2020/12/07 08:33:35;;;;;;;47.20;26.80;;;5.70;99.90;;;;;;4400598;32;20238;-67
2020/12/07 08:36:04;;;;;;;45.57;26.77;;;5.80;99.90;;;;;;4402970;32;20175;-68
2020/12/07 08:38:32;;;;;;;41.50;24.40;;;5.90;99.90;;;;;;4401706;32;20233;-67
2020/12/07 08:41:10;;;;;;;43.70;25.53;;;5.80;99.90;;;;;;4401437;32;20152;-69
2020/12/07 08:43:42;;;;;;;41.93;24.23;;;5.80;99.90;;;;;;4401405;32;20179;-69
2020/12/07 08:46:10;;;;;;;41.07;24.10;;;5.80;99.90;;;;;;4396398;32;20156;-69
2020/12/07 08:48:41;;;;;;;35.53;24.10;;;5.80;99.90;;;;;;4402599;32;20579;-69
2020/12/07 08:51:10;;;;;;;36.33;21.93;;;5.80;99.90;;;;;;4404550;32;20152;-69
2020/12/07 08:53:38;;;;;;;38.40;22.50;;;5.80;99.90;;;;;;4403915;32;20245;-68
2020/12/07 08:56:19;;;;;;;38.97;22.53;;;5.90;99.90;;;;;;4403038;32;20569;-68
2020/12/07 08:58:48;;;;;;;38.93;22.47;;;5.90;99.90;;;;;;4398392;32;20143;-68
2020/12/07 09:01:14;;;;;;;33.27;20.83;;;5.90;99.90;;;;;;4404128;32;20659;-68
2020/12/07 09:03:43;;;;;;;28.17;19.07;;;5.90;99.90;;;;;;4400143;32;20170;-68
2020/12/07 09:06:13;;;;;;;30.87;20.43;;;6.00;99.90;;;;;;4396495;32;20223;-69
2020/12/07 09:08:45;;;;;;;28.40;19.13;;;6.00;99.90;;;;;;4395852;32;20154;-69
2020/12/07 09:11:18;;;;;;;28.63;17.67;;;6.10;99.90;;;;;;4395254;32;20628;-69
2020/12/07 09:13:44;;;;;;;29.77;18.53;;;6.10;99.90;;;;;;4395837;32;20527;-70
2020/12/07 09:16:14;;;;;;;30.20;18.10;;;6.10;99.90;;;;;;4396748;32;20167;-69
2020/12/07 09:18:45;;;;;;;23.90;16.40;;;6.10;99.90;;;;;;4400686;32;20197;-69
2020/12/07 09:21:11;;;;;;;27.63;17.63;;;6.00;99.90;;;;;;4402285;32;20166;-69
2020/12/07 09:23:38;;;;;;;25.03;16.57;;;6.10;99.90;;;;;;4401690;32;20520;-69
2020/12/07 09:26:05;;;;;;;23.30;14.60;;;6.10;99.90;;;;;;4400930;32;20449;-68
2020/12/07 09:28:36;;;;;;;19.23;14.20;;;6.20;99.90;;;;;;4400098;32;20167;-69
2020/12/07 09:31:02;;;;;;;21.87;14.17;;;6.20;99.90;;;;;;4400336;32;20602;-70
2020/12/07 09:33:31;;;;;;;22.03;13.60;;;6.10;99.90;;;;;;4401507;32;20175;-69
2020/12/07 09:36:02;;;;;;;18.83;12.50;;;6.10;99.90;;;;;;4402164;32;20559;-69
2020/12/07 09:38:31;;;;;;;20.80;13.03;;;6.10;99.90;;;;;;4397321;32;20163;-69
2020/12/07 09:40:59;;;;;;;71.17;18.57;;;6.10;99.90;;;;;;4398893;32;20535;-69
2020/12/07 09:43:26;;;;;;;24.47;16.03;;;6.10;99.90;;;;;;4395388;32;20246;-69
2020/12/07 09:45:52;;;;;;;22.83;16.33;;;6.00;99.90;;;;;;4394169;32;20144;-68
2020/12/07 09:48:18;;;;;;;25.13;16.80;;;6.00;99.90;;;;;;4395382;32;20156;-69
2020/12/07 09:50:46;;;;;;;25.83;17.77;;;6.00;99.90;;;;;;4396156;32;20149;-68
2020/12/07 09:53:16;;;;;;;24.33;19.00;;;6.10;99.90;;;;;;4398854;32;20143;-68
2020/12/07 09:55:45;;;;;;;26.73;19.40;;;6.00;99.90;;;;;;4391595;32;20144;-68
2020/12/07 09:58:12;;;;;;;27.97;20.40;;;6.00;99.90;;;;;;4397488;32;20220;-69
2020/12/07 10:00:38;;;;;;;29.67;20.40;;;5.90;99.90;;;;;;4398319;32;20470;-68
2020/12/07 10:03:04;;;;;;;32.97;21.53;;;6.00;99.90;;;;;;4395432;32;20175;-69
2020/12/07 10:05:31;;;;;;;26.37;20.33;;;5.90;99.90;;;;;;4400566;32;20171;-68
2020/12/07 10:07:58;;;;;;;28.63;20.77;;;5.90;99.90;;;;;;4401302;32;20194;-68
2020/12/07 10:10:24;;;;;;;31.97;21.50;;;5.90;99.90;;;;;;4394860;32;20223;-68
2020/12/07 10:12:51;;;;;;;30.60;20.73;;;5.90;99.90;;;;;;4394539;32;20149;-69
2020/12/07 10:15:17;;;;;;;27.40;20.03;;;5.90;99.90;;;;;;4391954;32;20469;-69
2020/12/07 10:17:43;;;;;;;30.60;21.70;;;5.90;99.90;;;;;;4400910;32;20630;-68
2020/12/07 10:20:10;;;;;;;31.23;22.20;;;5.80;99.90;;;;;;4394463;32;20166;-68
2020/12/07 10:22:36;;;;;;;30.67;21.83;;;5.90;99.90;;;;;;4393789;32;20152;-68
2020/12/07 10:25:03;;;;;;;32.07;23.07;;;5.80;99.90;;;;;;4402662;32;20561;-69
2020/12/07 10:27:32;;;;;;;33.60;23.60;;;5.70;99.90;;;;;;4403588;32;20151;-69
2020/12/07 10:29:59;;;;;;;35.30;23.07;;;5.90;99.90;;;;;;4397099;32;20178;-67
2020/12/07 10:32:25;;;;;;;36.50;25.37;;;5.80;99.90;;;;;;4391731;32;20525;-68
2020/12/07 10:34:52;;;;;;;38.00;25.43;;;5.80;99.90;;;;;;4395184;32;20456;-68
2020/12/07 10:37:18;;;;;;;39.00;26.57;;;5.90;99.90;;;;;;4391305;32;20178;-69
2020/12/07 10:39:44;;;;;;;39.83;27.77;;;5.90;99.90;;;;;;4398277;32;20156;-69
2020/12/07 10:42:11;;;;;;;36.73;26.10;;;5.80;99.90;;;;;;4398567;32;20166;-68
2020/12/07 10:44:38;;;;;;;33.93;26.33;;;5.90;99.90;;;;;;4399799;32;20179;-68
2020/12/07 10:47:04;;;;;;;40.60;27.83;;;6.00;99.90;;;;;;4400382;32;20151;-68
2020/12/07 10:49:31;;;;;;;37.60;26.23;;;6.00;99.90;;;;;;4395254;32;20155;-69
2020/12/07 10:52:03;;;;;;;40.33;25.70;;;6.10;99.90;;;;;;4397436;32;20610;-69
2020/12/07 10:54:29;;;;;;;30.93;24.10;;;6.20;99.90;;;;;;4390264;32;20599;-69
2020/12/07 10:56:57;;;;;;;33.20;24.20;;;6.20;99.90;;;;;;4395783;32;20217;-67
2020/12/07 10:59:24;;;;;;;36.30;23.87;;;6.20;99.90;;;;;;4396377;32;20160;-68
2020/12/07 11:01:53;;;;;;;31.60;22.87;;;6.20;99.90;;;;;;4392971;32;20195;-69
2020/12/07 11:04:19;;;;;;;32.00;24.33;;;6.20;99.90;;;;;;4394430;32;20203;-68
2020/12/07 11:06:48;;;;;;;35.00;24.53;;;6.20;99.90;;;;;;4391001;32;20163;-68
2020/12/07 11:09:23;;;;;;;36.83;24.97;;;6.30;99.90;;;;;;4397970;32;20144;-67
2020/12/07 11:11:49;;;;;;;36.50;26.33;;;6.30;99.90;;;;;;4399506;32;20135;-69
2020/12/07 11:14:15;;;;;;;42.30;26.67;;;6.30;99.90;;;;;;4399993;32;20144;-69
2020/12/07 11:16:43;;;;;;;43.27;28.07;;;6.30;99.90;;;;;;4401291;32;20181;-67
2020/12/07 11:19:10;;;;;;;44.80;31.00;;;6.20;99.90;;;;;;4402299;32;20179;-67
2020/12/07 11:21:40;;;;;;;47.83;32.37;;;6.20;99.90;;;;;;4398811;32;20239;-68
2020/12/07 11:24:09;;;;;;;51.50;32.97;;;6.10;99.90;;;;;;4395937;32;20144;-67
2020/12/07 11:26:35;;;;;;;51.23;32.70;;;6.10;99.90;;;;;;4400068;32;20143;-67
2020/12/07 11:29:03;;;;;;;48.63;33.07;;;6.20;99.90;;;;;;4396024;32;20148;-67
2020/12/07 11:31:29;;;;;;;51.33;33.43;;;6.00;99.90;;;;;;4395203;32;20215;-68
2020/12/07 11:33:57;;;;;;;51.33;32.80;;;5.80;99.90;;;;;;4392877;32;20227;-67
2020/12/07 11:36:25;;;;;;;54.10;34.77;;;5.90;99.90;;;;;;4395720;32;20199;-68
2020/12/07 11:38:58;;;;;;;53.60;34.13;;;5.90;99.90;;;;;;4393523;32;20560;-67
2020/12/07 11:41:48;;;;;;;56.10;34.87;;;5.80;99.90;;;;;;4389020;32;20543;-68
2020/12/07 11:44:17;;;;;;;49.57;31.93;;;5.70;99.90;;;;;;4400179;32;20229;-68
2020/12/07 11:46:49;;;;;;;52.13;34.80;;;5.80;99.90;;;;;;4391998;32;20144;-68
2020/12/07 11:49:16;;;;;;;54.13;35.33;;;5.70;99.90;;;;;;4399064;32;20170;-68
2020/12/07 11:51:43;;;;;;;60.60;36.10;;;5.70;99.90;;;;;;4396978;32;20144;-68
2020/12/07 11:54:10;;;;;;;56.67;34.93;;;5.70;99.90;;;;;;4397565;32;20148;-68
2020/12/07 11:56:41;;;;;;;53.93;35.90;;;5.70;99.90;;;;;;4400244;32;20162;-68
2020/12/07 11:59:09;;;;;;;55.43;35.30;;;5.70;99.90;;;;;;4393575;32;20163;-68
2020/12/07 12:01:35;;;;;;;60.63;38.47;;;5.60;99.90;;;;;;4396259;32;20148;-68
2020/12/07 12:04:05;;;;;;;62.97;37.03;;;5.60;99.90;;;;;;4394497;32;20520;-69
2020/12/07 12:06:38;;;;;;;64.63;38.13;;;5.50;99.90;;;;;;4398996;32;20203;-68
2020/12/07 12:09:09;;;;;;;62.93;38.27;;;5.50;99.90;;;;;;4394234;32;20221;-69
2020/12/07 12:11:36;;;;;;;71.03;40.67;;;5.50;99.90;;;;;;4398519;32;20144;-68
2020/12/07 12:14:04;;;;;;;77.67;42.63;;;5.50;99.90;;;;;;4395047;32;20144;-67
2020/12/07 12:16:31;;;;;;;79.80;46.13;;;5.60;99.90;;;;;;4392636;32;20596;-70
2020/12/07 12:18:59;;;;;;;82.07;47.97;;;5.50;99.90;;;;;;4392194;32;20211;-69
2020/12/07 12:21:27;;;;;;;92.60;50.37;;;5.30;99.90;;;;;;4396753;32;20147;-70
2020/12/07 12:23:55;;;;;;;79.33;48.07;;;5.30;99.90;;;;;;4394718;32;20159;-69
2020/12/07 12:26:24;;;;;;;93.53;53.10;;;5.30;99.90;;;;;;4399185;32;20227;-68
2020/12/07 12:28:50;;;;;;;88.63;49.23;;;5.30;99.90;;;;;;4393091;32;20149;-67
2020/12/07 12:31:21;;;;;;;89.30;50.37;;;5.40;99.90;;;;;;4394199;32;20742;-68
2020/12/07 12:33:49;;;;;;;86.87;48.73;;;5.40;99.90;;;;;;4397510;32;20151;-67
2020/12/07 12:36:21;;;;;;;86.17;47.87;;;5.40;99.90;;;;;;4390266;32;20169;-67
2020/12/07 12:38:48;;;;;;;88.37;47.47;;;5.40;99.90;;;;;;4393428;32;20187;-67
2020/12/07 12:41:16;;;;;;;86.33;46.53;;;5.40;99.90;;;;;;4397139;32;20584;-68
2020/12/07 12:43:43;;;;;;;88.90;47.83;;;5.30;99.90;;;;;;4389336;32;20194;-67
2020/12/07 12:46:09;;;;;;;84.27;46.27;;;5.30;99.90;;;;;;4397117;32;20209;-67
2020/12/07 12:48:38;;;;;;;91.07;48.43;;;5.30;99.90;;;;;;4392176;32;20643;-67
2020/12/07 12:51:07;;;;;;;89.50;49.20;;;5.40;99.90;;;;;;4394960;32;20258;-68
2020/12/07 12:53:34;;;;;;;89.83;49.13;;;5.50;99.90;;;;;;4388584;32;20235;-67
2020/12/07 12:56:00;;;;;;;89.33;47.87;;;5.40;99.90;;;;;;4391644;32;20148;-67
2020/12/07 12:58:27;;;;;;;87.73;47.30;;;5.40;99.90;;;;;;4401176;32;20203;-67
2020/12/07 13:00:54;;;;;;;91.43;47.23;;;5.40;99.90;;;;;;4399197;32;20172;-67
2020/12/07 13:03:22;;;;;;;82.13;45.10;;;5.50;99.90;;;;;;4389423;32;20187;-68
2020/12/07 13:05:48;;;;;;;90.17;47.20;;;5.30;99.90;;;;;;4393116;32;20147;-68